createdAt,value
2019-03-17T00:03:05.898Z,99.90
2019-03-17T00:08:09.290Z,99.90
2019-03-17T00:13:12.667Z,99.90
2019-03-17T00:18:16.067Z,99.90
2019-03-17T00:23:19.439Z,99.90
2019-03-17T00:28:22.891Z,99.90
2019-03-17T00:33:26.271Z,99.90
2019-03-17T00:38:29.651Z,99.90
2019-03-17T00:43:33.026Z,99.90
2019-03-17T00:48:36.424Z,99.90
2019-03-17T00:53:39.811Z,99.90
2019-03-17T00:58:43.191Z,99.90
2019-03-17T01:03:46.588Z,99.90
2019-03-17T01:08:49.962Z,99.90
2019-03-17T01:13:53.339Z,99.90
2019-03-17T01:18:56.717Z,99.90
2019-03-17T01:24:00.091Z,99.90
2019-03-17T01:29:03.463Z,99.90
2019-03-17T01:34:06.852Z,99.90
2019-03-17T01:39:10.232Z,99.90
2019-03-17T01:44:13.610Z,99.90
2019-03-17T01:49:16.991Z,99.90
2019-03-17T01:54:20.367Z,99.90
2019-03-17T01:59:23.739Z,99.90
2019-03-17T02:04:27.115Z,99.90
2019-03-17T02:09:30.509Z,99.90
2019-03-17T02:14:33.892Z,99.90
2019-03-17T02:19:37.275Z,99.90
2019-03-17T02:24:40.680Z,99.90
2019-03-17T02:29:44.034Z,99.90
2019-03-17T02:34:47.419Z,99.90
2019-03-17T02:39:50.819Z,99.90
2019-03-17T02:44:54.207Z,99.90
2019-03-17T02:49:57.689Z,99.90
2019-03-17T02:55:01.067Z,99.90
2019-03-17T03:00:07.575Z,99.90
2019-03-17T03:05:11.067Z,99.90
2019-03-17T03:10:14.465Z,99.90
2019-03-17T03:15:17.847Z,99.90
2019-03-17T03:20:21.228Z,99.90
2019-03-17T03:25:24.606Z,99.90
2019-03-17T03:30:27.998Z,99.90
2019-03-17T03:35:31.402Z,99.90
2019-03-17T03:40:34.856Z,99.90
2019-03-17T03:45:38.248Z,99.90
2019-03-17T03:50:41.635Z,99.90
2019-03-17T03:55:45.027Z,99.90
2019-03-17T04:00:48.460Z,99.90
2019-03-17T04:05:51.885Z,99.90
2019-03-17T04:10:55.298Z,99.90
2019-03-17T04:15:58.679Z,99.90
2019-03-17T04:21:02.065Z,99.90
2019-03-17T04:26:05.448Z,99.90
2019-03-17T04:31:08.831Z,99.90
2019-03-17T04:36:12.212Z,99.90
2019-03-17T04:41:15.600Z,99.90
2019-03-17T04:46:18.994Z,99.90
2019-03-17T04:51:22.387Z,99.90
2019-03-17T04:56:25.791Z,99.90
2019-03-17T05:01:29.172Z,99.90
2019-03-17T05:06:32.560Z,99.90
2019-03-17T05:11:35.948Z,99.90
2019-03-17T05:16:39.335Z,99.90
2019-03-17T05:21:42.735Z,99.90
2019-03-17T05:26:46.107Z,99.90
2019-03-17T05:31:49.485Z,99.90
2019-03-17T05:37:05.040Z,99.90
2019-03-17T05:41:57.989Z,99.90
2019-03-17T05:47:01.367Z,99.90
2019-03-17T05:52:04.750Z,99.90
2019-03-17T05:57:08.132Z,99.90
2019-03-17T06:02:11.546Z,99.90
2019-03-17T06:07:18.919Z,99.90
2019-03-17T06:12:20.031Z,99.90
2019-03-17T06:17:23.399Z,99.90
2019-03-17T06:22:26.780Z,99.90
2019-03-17T06:27:30.170Z,99.90
2019-03-17T06:32:33.570Z,99.90
2019-03-17T06:37:36.959Z,99.90
2019-03-17T06:42:40.350Z,99.90
2019-03-17T06:47:43.758Z,99.90
2019-03-17T06:52:47.143Z,99.90
2019-03-17T06:57:50.535Z,99.90
2019-03-17T07:02:53.914Z,99.90
2019-03-17T07:07:57.297Z,99.90
2019-03-17T07:13:00.684Z,99.90
2019-03-17T07:18:04.096Z,99.90
2019-03-17T07:23:07.483Z,99.90
2019-03-17T07:28:10.883Z,99.90
2019-03-17T07:33:14.268Z,99.90
2019-03-17T07:38:17.651Z,99.90
2019-03-17T07:43:21.042Z,99.90
2019-03-17T07:48:24.442Z,99.90
2019-03-17T07:53:27.823Z,99.90
2019-03-17T07:58:31.212Z,99.90
2019-03-17T08:03:34.600Z,99.90
2019-03-17T08:08:37.997Z,99.90
2019-03-17T08:13:41.559Z,99.90
2019-03-17T08:18:44.950Z,99.90
2019-03-17T08:23:48.332Z,99.90
2019-03-17T08:28:51.714Z,99.90
2019-03-17T08:33:55.183Z,99.90
2019-03-17T08:38:58.573Z,99.90
2019-03-17T08:44:01.959Z,99.90
2019-03-17T08:49:05.411Z,99.90
2019-03-17T08:54:08.808Z,99.90
2019-03-17T08:59:12.192Z,99.90
2019-03-17T09:04:15.598Z,99.90
2019-03-17T09:09:18.983Z,99.90
2019-03-17T09:14:22.365Z,99.90
2019-03-17T09:19:25.752Z,99.90
2019-03-17T09:24:29.146Z,99.90
2019-03-17T09:29:32.531Z,99.90
2019-03-17T09:34:35.932Z,99.90
2019-03-17T09:39:39.319Z,99.90
2019-03-17T09:44:42.707Z,99.90
2019-03-17T09:49:46.096Z,99.90
2019-03-17T09:54:49.479Z,99.90
2019-03-17T09:59:52.873Z,99.90
2019-03-17T10:04:56.255Z,99.90
2019-03-17T10:09:59.654Z,99.90
2019-03-17T10:15:03.211Z,99.90
2019-03-17T10:20:09.677Z,99.90
2019-03-17T10:25:13.335Z,99.90
2019-03-17T10:30:19.797Z,99.90
2019-03-17T10:35:23.183Z,99.40
2019-03-17T10:40:26.582Z,99.90
2019-03-17T10:45:29.963Z,94.60
2019-03-17T10:50:33.351Z,91.10
2019-03-17T10:55:36.739Z,86.30
2019-03-17T11:00:40.143Z,91.20
2019-03-17T11:05:43.527Z,78.40
2019-03-17T11:10:46.924Z,72.90
2019-03-17T11:15:50.311Z,75.70
2019-03-17T11:20:53.696Z,74.30
2019-03-17T11:25:57.085Z,75.20
2019-03-17T11:31:00.550Z,74.20
2019-03-17T11:36:04.000Z,65.70
2019-03-17T11:41:07.387Z,66.20
2019-03-17T11:46:10.781Z,65.20
2019-03-17T11:51:14.167Z,58.80
2019-03-17T11:56:17.551Z,61.30
2019-03-17T12:01:20.936Z,60.30
2019-03-17T12:06:24.315Z,67.00
2019-03-17T12:11:27.703Z,64.90
2019-03-17T12:16:31.092Z,63.60
2019-03-17T12:21:34.468Z,64.90
2019-03-17T12:26:37.843Z,62.00
2019-03-17T12:31:41.230Z,62.20
2019-03-17T12:36:44.615Z,62.20
2019-03-17T12:41:48.011Z,63.20
2019-03-17T12:46:51.403Z,67.00
2019-03-17T12:51:54.792Z,63.20
2019-03-17T12:56:58.184Z,67.40
2019-03-17T13:02:01.561Z,68.60
2019-03-17T13:07:04.938Z,71.10
2019-03-17T13:12:08.347Z,71.10
2019-03-17T13:17:11.748Z,67.80
2019-03-17T13:22:15.128Z,70.90
2019-03-17T13:27:18.519Z,68.90
2019-03-17T13:32:21.914Z,59.70
2019-03-17T13:37:25.299Z,59.30
2019-03-17T13:42:28.706Z,56.00
2019-03-17T13:47:32.090Z,57.10
2019-03-17T13:52:35.488Z,55.20
2019-03-17T13:57:39.142Z,55.00
2019-03-17T14:02:42.513Z,54.80
2019-03-17T14:07:45.895Z,57.20
2019-03-17T14:12:49.295Z,56.70
2019-03-17T14:17:52.703Z,56.30
2019-03-17T14:22:56.102Z,55.30
2019-03-17T14:27:59.480Z,60.10
2019-03-17T14:33:02.866Z,60.20
2019-03-17T14:38:06.288Z,56.70
2019-03-17T14:43:09.671Z,59.60
2019-03-17T14:48:13.047Z,54.40
2019-03-17T14:53:16.439Z,54.80
2019-03-17T14:58:19.815Z,57.20
2019-03-17T15:03:23.192Z,59.80
2019-03-17T15:08:26.576Z,57.50
2019-03-17T15:13:29.959Z,54.60
2019-03-17T15:18:33.335Z,56.10
2019-03-17T15:23:36.729Z,56.70
2019-03-17T15:28:40.112Z,54.30
2019-03-17T15:33:43.491Z,55.50
2019-03-17T15:38:47.065Z,56.20
2019-03-17T15:43:50.439Z,56.60
2019-03-17T15:48:53.819Z,56.50
2019-03-17T15:53:57.220Z,57.40
2019-03-17T15:59:00.595Z,59.20
2019-03-17T16:04:03.995Z,58.10
2019-03-17T16:09:08.242Z,58.40
2019-03-17T16:14:11.628Z,61.40
2019-03-17T16:19:15.019Z,63.00
2019-03-17T16:24:18.396Z,62.60
2019-03-17T16:29:21.809Z,63.60
2019-03-17T16:34:25.192Z,63.80
2019-03-17T16:39:28.578Z,64.90
2019-03-17T16:44:31.973Z,66.00
2019-03-17T16:49:35.367Z,66.90
2019-03-17T16:54:38.758Z,68.80
2019-03-17T16:59:42.143Z,68.70
2019-03-17T17:04:45.531Z,69.10
2019-03-17T17:09:48.924Z,69.30
2019-03-17T17:14:52.315Z,68.20
2019-03-17T17:19:55.701Z,67.60
2019-03-17T17:24:59.087Z,67.20
2019-03-17T17:30:02.760Z,68.40
2019-03-17T17:35:06.897Z,68.30
2019-03-17T17:40:21.297Z,69.20
2019-03-17T17:45:25.528Z,69.50
2019-03-17T17:50:32.426Z,70.70
2019-03-17T17:55:35.824Z,72.50
2019-03-17T18:00:46.991Z,72.20
2019-03-17T18:05:50.367Z,73.40
2019-03-17T18:10:53.761Z,73.80
2019-03-17T18:15:57.146Z,74.90
2019-03-17T18:21:00.539Z,75.20
2019-03-17T18:26:03.911Z,75.60
2019-03-17T18:31:07.309Z,77.10
2019-03-17T18:36:10.712Z,76.70
2019-03-17T18:41:14.182Z,77.50
2019-03-17T18:46:17.584Z,78.80
2019-03-17T18:51:20.969Z,80.30
2019-03-17T18:56:24.351Z,82.90
2019-03-17T19:01:27.739Z,83.50
2019-03-17T19:06:31.161Z,84.00
2019-03-17T19:11:34.548Z,85.70
2019-03-17T19:16:37.931Z,86.70
2019-03-17T19:21:41.316Z,88.60
2019-03-17T19:26:44.698Z,89.60
2019-03-17T19:31:48.087Z,89.90
2019-03-17T19:36:51.471Z,90.40
2019-03-17T19:41:54.891Z,91.10
2019-03-17T19:46:58.268Z,91.90
2019-03-17T19:52:01.664Z,91.60
2019-03-17T19:57:05.062Z,93.20
2019-03-17T20:02:08.443Z,93.10
2019-03-17T20:07:11.810Z,93.30
2019-03-17T20:12:15.196Z,94.10
2019-03-17T20:17:18.610Z,94.70
2019-03-17T20:22:21.995Z,95.10
2019-03-17T20:27:25.379Z,95.50
2019-03-17T20:32:28.755Z,96.10
2019-03-17T20:37:32.139Z,96.90
2019-03-17T20:42:35.580Z,96.80
2019-03-17T20:47:38.942Z,97.90
2019-03-17T20:52:42.337Z,98.20
2019-03-17T20:57:45.795Z,98.20
2019-03-17T21:02:49.225Z,98.50
2019-03-17T21:07:52.639Z,99.90
2019-03-17T21:12:56.096Z,99.90
2019-03-17T21:17:59.497Z,99.90
2019-03-17T21:23:03.731Z,99.90
2019-03-17T21:28:07.120Z,99.90
2019-03-17T21:33:10.504Z,99.90
2019-03-17T21:38:13.931Z,99.90
2019-03-17T21:43:17.299Z,99.90
2019-03-17T21:48:20.703Z,99.90
2019-03-17T21:53:24.103Z,99.90
2019-03-17T21:58:27.475Z,99.90
2019-03-17T22:03:30.854Z,99.90
2019-03-17T22:08:34.255Z,99.90
2019-03-17T22:13:37.640Z,99.90
2019-03-17T22:18:41.061Z,99.90
2019-03-17T22:23:44.463Z,99.90
2019-03-17T22:28:47.835Z,99.90
2019-03-17T22:33:51.211Z,99.90
2019-03-17T22:38:54.597Z,99.90
2019-03-17T22:43:57.973Z,99.90
2019-03-17T22:49:01.363Z,99.90
2019-03-17T22:54:04.752Z,99.90
2019-03-17T22:59:08.127Z,99.90
2019-03-17T23:04:11.505Z,99.90
2019-03-17T23:09:14.891Z,99.90
2019-03-17T23:14:18.271Z,99.90
2019-03-17T23:19:21.660Z,99.90
2019-03-17T23:24:25.071Z,99.90
2019-03-17T23:29:28.463Z,99.90
2019-03-17T23:34:31.842Z,99.90
2019-03-17T23:39:35.224Z,99.90
2019-03-17T23:44:48.572Z,99.90
2019-03-17T23:49:43.755Z,99.90
2019-03-17T23:54:47.138Z,99.90
2019-03-17T23:59:50.532Z,99.90
